Kelowna, Canada
Current Conditions -  °F | °C
As of 4:00 AM on Tuesday 27 Jan 2015 (Local Time) from CYLW Reporting Station
Haze Haze  
Wind Chill:   Ceiling: 1500
Heat Index:   Visibility: 3mi
Dew Point:   Wind: 0mph
Humidity: 100%   Direction: NA
Pressure: 29.99"   Gusts: NA
Location:  49.89°N, 119.5°W
Report Text: CYLW 271200Z AUTO 00000KT 3SM BR OVC015 00/00 A2999 RMK SLP171
Loading
Personal Weather Stations






























Interactive Weather Map New forecast layout! Learn more

10-Day Weather Forecast

Advertisements
Track Severe Weather on mobile